»·PEaware :: N75232 KSNA-KSNA

N75232 :: KSNA-KSNA

FLIGHT INFORMATION

Flight Status: Arrived
Operator: Privately registered:
United States
More flights under this callsign
Pilot: Daniel B. (28719)
Aircraft: PIPER PA-28 CHEROKEE ARCHER
(PA28)
More flights by this aircraft type
Origin: KSNA John Wayne-Orange Co
United States
Destination: KSNA John Wayne-Orange Co
United States
More flights between these airports :: More routes between these airports
Route: +SLI
File this flight plan on PilotEdge
Remarks:
Altitude:
(Current/Filed)
3,000ft
Speed:
(Current/Filed)
120kts
Departed: 25-Apr-20 11:50 AM
Arrived: 25-Apr-20 12:15 PM
Distance/Time
Traveled:
0nm/0:25
Distance/Time
To Go:
Arrived

Flight Plot

Page will automatically refresh every two minutes.


Map Options




Map Legend


Flown Route
Filed Route
Departure Airport
Arrival Airport
Navaid (VOR, NDB)
Fix

Horizontal Profiles

Position Reports

Time Latitude Longitude Heading Altitude Ground
Speed
25-Apr-20 11:21 33.672449 -117.867191 208 61ft 0kts
25-Apr-20 11:22 33.672449 -117.867191 208 61ft 0kts
25-Apr-20 11:23 33.672449 -117.867191 208 61ft 0kts
25-Apr-20 11:24 33.672449 -117.867191 208 61ft 0kts
25-Apr-20 11:25 33.672449 -117.867191 208 61ft 0kts
25-Apr-20 11:26 33.672449 -117.867191 208 61ft 0kts
25-Apr-20 11:27 33.672449 -117.867191 208 61ft 0kts
25-Apr-20 11:28 33.672449 -117.867191 208 61ft 0kts
25-Apr-20 11:29 33.672449 -117.867191 208 61ft 0kts
25-Apr-20 11:30 33.672449 -117.867191 208 61ft 0kts
25-Apr-20 11:31 33.672449 -117.867191 208 61ft 0kts
25-Apr-20 11:32 33.672449 -117.867191 208 61ft 0kts
25-Apr-20 11:33 33.672446 -117.867192 207 61ft 0kts
25-Apr-20 11:34 33.672445 -117.867193 207 61ft 0kts
25-Apr-20 11:35 33.672446 -117.867192 207 61ft 0kts
25-Apr-20 11:36 33.672446 -117.867192 207 61ft 0kts
25-Apr-20 11:37 33.672442 -117.867195 208 61ft 1kts
25-Apr-20 11:38 33.673078 -117.867385 52 61ft 0kts
25-Apr-20 11:39 33.673248 -117.867146 39 61ft 4kts
25-Apr-20 11:40 33.676305 -117.865687 26 61ft 22kts
25-Apr-20 11:41 33.679986 -117.863677 298 61ft 4kts
25-Apr-20 11:42 33.679996 -117.863699 297 61ft 0kts
25-Apr-20 11:43 33.679996 -117.863699 297 61ft 0kts
25-Apr-20 11:44 33.679996 -117.863699 297 61ft 0kts
25-Apr-20 11:45 33.679996 -117.863699 297 61ft 0kts
25-Apr-20 11:46 33.679996 -117.863699 297 61ft 0kts
25-Apr-20 11:47 33.679996 -117.863699 297 61ft 0kts
25-Apr-20 11:48 33.679996 -117.863701 297 61ft 0kts
25-Apr-20 11:49 33.669085 -117.870917 206 463ft 73kts
25-Apr-20 11:50 33.658131 -117.892471 239 1380ft 75kts
25-Apr-20 11:51 33.648467 -117.916516 241 2208ft 81kts
25-Apr-20 11:52 33.638621 -117.941109 239 2965ft 89kts
25-Apr-20 11:53 33.648842 -117.967188 7 3023ft 131kts
25-Apr-20 11:54 33.682570 -117.960975 8 2966ft 130kts
25-Apr-20 11:55 33.714780 -117.953890 5 3018ft 129kts
25-Apr-20 11:56 33.747479 -117.948072 3 3030ft 130kts
25-Apr-20 11:57 33.780122 -117.940635 9 3057ft 126kts
25-Apr-20 11:58 33.812589 -117.933765 5 3006ft 127kts
25-Apr-20 11:59 33.846013 -117.923280 19 2980ft 130kts
25-Apr-20 12:00 33.880900 -117.906066 19 2993ft 125kts
25-Apr-20 12:01 33.904171 -117.879519 93 2968ft 128kts
25-Apr-20 12:02 33.902417 -117.837470 92 3015ft 126kts
25-Apr-20 12:03 33.901346 -117.794732 90 2999ft 126kts
25-Apr-20 12:04 33.900424 -117.752503 91 2997ft 127kts
25-Apr-20 12:05 33.882494 -117.735707 213 2965ft 124kts
25-Apr-20 12:06 33.852416 -117.757038 209 2982ft 124kts
25-Apr-20 12:07 33.822343 -117.776706 207 3054ft 123kts
25-Apr-20 12:08 33.796987 -117.792473 211 2485ft 90kts
25-Apr-20 12:09 33.774052 -117.806494 208 2118ft 92kts
25-Apr-20 12:10 33.750821 -117.821090 208 1637ft 97kts
25-Apr-20 12:11 33.728726 -117.835242 207 1116ft 85kts
25-Apr-20 12:12 33.707846 -117.848794 208 675ft 85kts
25-Apr-20 12:13 33.686824 -117.861861 207 218ft 82kts
25-Apr-20 12:14 33.677406 -117.866803 121 61ft 6kts
25-Apr-20 12:15 33.677322 -117.866625 119 61ft 0kts
25-Apr-20 12:16 33.676379 -117.865647 207 61ft 11kts
25-Apr-20 12:17 33.673896 -117.867177 187 61ft 0kts
25-Apr-20 12:18 33.672579 -117.867105 208 68ft 0kts

Navigation Log

Ident Type
Flight plan parsing failed, navigation log unavailable